createdAt,value
2023-01-22T00:02:03.365Z,26.50
2023-01-22T00:05:47.260Z,24.67
2023-01-22T00:09:30.000Z,27.93
2023-01-22T00:13:12.700Z,26.83
2023-01-22T00:16:55.365Z,26.33
2023-01-22T00:20:40.861Z,28.77
2023-01-22T00:24:24.312Z,27.00
2023-01-22T00:28:07.426Z,25.53
2023-01-22T00:31:50.118Z,28.30
2023-01-22T00:35:35.255Z,26.70
2023-01-22T00:39:19.462Z,26.57
2023-01-22T00:43:02.344Z,28.97
2023-01-22T00:46:45.093Z,28.43
2023-01-22T00:50:27.844Z,26.27
2023-01-22T00:54:10.543Z,26.47
2023-01-22T00:57:54.602Z,25.10
2023-01-22T01:01:38.453Z,28.97
2023-01-22T01:05:21.223Z,25.33
2023-01-22T01:09:05.302Z,24.30
2023-01-22T01:12:47.971Z,32.13
2023-01-22T01:16:32.981Z,25.23
2023-01-22T01:20:15.956Z,26.77
2023-01-22T01:23:59.566Z,30.47
2023-01-22T01:27:47.082Z,30.20
2023-01-22T01:31:29.868Z,25.30
2023-01-22T01:35:13.925Z,27.93
2023-01-22T01:38:56.609Z,25.70
2023-01-22T01:42:41.037Z,26.93
2023-01-22T01:46:25.536Z,29.73
2023-01-22T01:50:08.468Z,28.00
2023-01-22T01:53:53.036Z,29.73
2023-01-22T01:57:36.196Z,27.37
2023-01-22T02:01:19.575Z,29.80
2023-01-22T02:05:02.289Z,26.50
2023-01-22T02:08:46.246Z,34.97
2023-01-22T02:12:30.756Z,32.27
2023-01-22T02:16:13.527Z,27.27
2023-01-22T02:19:56.448Z,33.60
2023-01-22T02:23:40.446Z,31.27
2023-01-22T02:27:23.312Z,26.97
2023-01-22T02:31:06.468Z,28.77
2023-01-22T02:34:49.264Z,32.83
2023-01-22T02:38:31.928Z,30.50
2023-01-22T02:42:16.046Z,26.70
2023-01-22T02:46:00.580Z,31.47
2023-01-22T02:49:43.318Z,30.17
2023-01-22T02:53:25.978Z,33.27
2023-01-22T02:57:08.780Z,33.77
2023-01-22T03:00:53.264Z,28.87
2023-01-22T03:04:35.947Z,27.37
2023-01-22T03:08:19.678Z,30.17
2023-01-22T03:12:02.524Z,28.47
2023-01-22T03:16:05.933Z,31.23
2023-01-22T03:20:07.225Z,31.93
2023-01-22T03:23:52.003Z,35.03
2023-01-22T03:27:34.738Z,30.67
2023-01-22T03:31:17.987Z,33.47
2023-01-22T03:35:02.751Z,26.93
2023-01-22T03:38:45.878Z,29.73
2023-01-22T03:42:28.748Z,33.73
2023-01-22T03:46:13.547Z,31.73
2023-01-22T03:49:56.235Z,30.30
2023-01-22T03:53:40.808Z,29.30
2023-01-22T03:57:23.473Z,29.40
2023-01-22T04:01:07.576Z,30.60
2023-01-22T04:04:50.639Z,31.63
2023-01-22T04:08:35.336Z,33.13
2023-01-22T04:12:19.462Z,30.03
2023-01-22T04:16:02.785Z,29.83
2023-01-22T04:19:45.436Z,30.87
2023-01-22T04:23:28.199Z,28.57
2023-01-22T04:27:10.834Z,30.97
2023-01-22T04:30:55.604Z,31.97
2023-01-22T04:34:38.291Z,32.43
2023-01-22T04:38:20.998Z,33.40
2023-01-22T04:42:03.688Z,31.13
2023-01-22T04:45:46.384Z,30.33
2023-01-22T04:49:30.466Z,33.90
2023-01-22T04:53:13.325Z,31.70
2023-01-22T04:56:56.012Z,33.80
2023-01-22T05:00:38.840Z,34.93
2023-01-22T05:04:23.781Z,33.27
2023-01-22T05:08:09.039Z,32.33
2023-01-22T05:11:51.783Z,31.30
2023-01-22T05:15:34.955Z,33.23
2023-01-22T05:19:17.867Z,32.40
2023-01-22T05:23:00.568Z,33.23
2023-01-22T05:26:44.997Z,31.73
2023-01-22T05:30:27.728Z,31.63
2023-01-22T05:34:10.447Z,30.53
2023-01-22T05:37:53.164Z,32.17
2023-01-22T05:41:38.672Z,34.90
2023-01-22T05:45:22.737Z,32.63
2023-01-22T05:49:05.756Z,35.07
2023-01-22T05:52:48.481Z,33.90
2023-01-22T05:56:31.298Z,33.17
2023-01-22T06:00:15.359Z,35.63
2023-01-22T06:03:59.684Z,31.53
2023-01-22T06:07:42.318Z,32.43
2023-01-22T06:11:25.740Z,30.93
2023-01-22T06:15:09.797Z,39.07
2023-01-22T06:18:52.482Z,32.63
2023-01-22T06:22:36.488Z,36.00
2023-01-22T06:26:19.316Z,30.80
2023-01-22T06:30:02.073Z,32.83
2023-01-22T06:33:44.765Z,34.17
2023-01-22T06:37:27.449Z,36.77
2023-01-22T06:41:11.686Z,33.00
2023-01-22T06:44:54.391Z,34.73
2023-01-22T06:48:37.075Z,32.00
2023-01-22T06:52:19.775Z,31.50
2023-01-22T06:56:02.930Z,35.17
2023-01-22T06:59:46.989Z,28.23
2023-01-22T07:03:29.774Z,30.40
2023-01-22T07:07:12.986Z,29.37
2023-01-22T07:10:55.672Z,33.23
2023-01-22T07:14:38.340Z,31.67
2023-01-22T07:18:23.991Z,28.50
2023-01-22T07:22:06.783Z,29.87
2023-01-22T07:25:49.493Z,27.93
2023-01-22T07:29:32.217Z,32.87
2023-01-22T07:33:15.880Z,30.27
2023-01-22T07:37:01.911Z,29.73
2023-01-22T07:40:44.699Z,30.70
2023-01-22T07:44:27.381Z,31.40
2023-01-22T07:48:10.771Z,28.10
2023-01-22T07:51:53.524Z,30.03
2023-01-22T07:55:37.571Z,30.80
2023-01-22T07:59:20.238Z,33.73
2023-01-22T08:03:03.344Z,28.33
2023-01-22T08:06:46.080Z,29.77
2023-01-22T08:10:29.084Z,33.50
2023-01-22T08:14:13.176Z,32.27
2023-01-22T08:17:55.917Z,29.73
2023-01-22T08:21:38.753Z,30.27
2023-01-22T08:25:21.457Z,31.17
2023-01-22T08:29:07.207Z,29.63
2023-01-22T08:32:51.576Z,31.70
2023-01-22T08:36:34.258Z,35.00
2023-01-22T08:40:17.372Z,29.03
2023-01-22T08:44:00.324Z,32.23
2023-01-22T08:47:42.963Z,28.63
2023-01-22T08:51:27.084Z,32.73
2023-01-22T08:55:10.833Z,33.60
2023-01-22T08:58:53.616Z,32.00
2023-01-22T09:02:36.256Z,28.20
2023-01-22T09:06:18.908Z,35.17
2023-01-22T09:10:04.204Z,28.60
2023-01-22T09:13:47.057Z,30.20
2023-01-22T09:17:29.753Z,30.00
2023-01-22T09:21:12.548Z,28.83
2023-01-22T09:24:55.658Z,30.87
2023-01-22T09:28:39.870Z,27.63
2023-01-22T09:32:22.488Z,29.90
2023-01-22T09:36:09.961Z,31.33
2023-01-22T09:39:52.767Z,26.40
2023-01-22T09:43:38.323Z,28.13
2023-01-22T09:47:31.669Z,34.57
2023-01-22T09:51:15.491Z,27.53
2023-01-22T09:54:58.321Z,25.57
2023-01-22T09:58:41.066Z,31.83
2023-01-22T10:02:31.028Z,31.90
2023-01-22T10:06:15.158Z,31.07
2023-01-22T10:10:02.465Z,27.97
2023-01-22T10:13:45.225Z,30.27
2023-01-22T10:17:32.302Z,28.77
2023-01-22T10:21:19.543Z,30.53
2023-01-22T10:25:02.353Z,31.17
2023-01-22T10:28:46.188Z,30.03
2023-01-22T10:32:31.893Z,28.40
2023-01-22T10:36:15.775Z,29.40
2023-01-22T10:40:00.335Z,26.57
2023-01-22T10:43:43.080Z,25.83
2023-01-22T10:47:27.625Z,24.53
2023-01-22T10:51:16.197Z,25.90
2023-01-22T10:55:00.092Z,27.57
2023-01-22T10:58:49.001Z,27.43
2023-01-22T11:02:31.936Z,24.27
2023-01-22T11:06:20.699Z,29.20
2023-01-22T11:10:09.345Z,28.50
2023-01-22T11:13:55.982Z,29.97
2023-01-22T11:17:40.373Z,26.50
2023-01-22T11:21:27.804Z,30.07
2023-01-22T11:25:12.034Z,27.97
2023-01-22T11:28:59.505Z,31.03
2023-01-22T11:32:51.946Z,20.67
2023-01-22T11:36:40.401Z,27.23
2023-01-22T11:40:28.101Z,21.33
2023-01-22T11:44:25.655Z,24.53
2023-01-22T11:48:31.163Z,23.67
2023-01-22T11:52:22.109Z,23.80
2023-01-22T11:56:15.956Z,20.33
2023-01-22T12:00:12.426Z,24.60
2023-01-22T12:04:35.766Z,20.80
2023-01-22T12:08:31.943Z,23.70
2023-01-22T12:12:26.851Z,22.10
2023-01-22T12:16:16.649Z,18.53
2023-01-22T12:20:14.461Z,16.43
2023-01-22T12:24:03.204Z,15.60
2023-01-22T12:27:50.978Z,16.77
2023-01-22T12:31:36.815Z,16.33
2023-01-22T12:35:21.321Z,16.97
2023-01-22T12:39:12.833Z,18.37
2023-01-22T12:43:01.374Z,15.40
2023-01-22T12:46:51.828Z,21.80
2023-01-22T12:50:34.532Z,18.27
2023-01-22T12:54:23.647Z,14.97
2023-01-22T12:58:22.114Z,14.17
2023-01-22T13:02:06.772Z,13.53
2023-01-22T13:05:49.589Z,15.23
2023-01-22T13:09:36.957Z,14.00
2023-01-22T13:13:24.834Z,15.47
2023-01-22T13:17:18.932Z,14.53
2023-01-22T13:21:04.624Z,15.33
2023-01-22T13:24:53.890Z,13.07
2023-01-22T13:28:36.582Z,14.97
2023-01-22T13:32:21.294Z,13.93
2023-01-22T13:36:10.774Z,15.07
2023-01-22T13:39:54.892Z,19.53
2023-01-22T13:43:39.252Z,20.23
2023-01-22T13:47:28.309Z,21.00
2023-01-22T13:51:18.245Z,15.40
2023-01-22T13:55:06.936Z,13.80
2023-01-22T13:58:54.151Z,13.90
2023-01-22T14:02:37.039Z,16.57
2023-01-22T14:06:19.690Z,16.00
2023-01-22T14:10:15.237Z,16.30
2023-01-22T14:13:58.075Z,15.90
2023-01-22T14:17:40.774Z,14.87
2023-01-22T14:21:24.685Z,16.53
2023-01-22T14:25:08.704Z,16.50
2023-01-22T14:28:53.084Z,17.00
2023-01-22T14:32:35.936Z,18.63
2023-01-22T14:36:20.310Z,17.50
2023-01-22T14:40:03.865Z,20.27
2023-01-22T14:43:47.421Z,27.27
2023-01-22T14:47:31.581Z,26.20
2023-01-22T14:51:14.611Z,18.93
2023-01-22T14:54:57.289Z,19.50
2023-01-22T14:58:39.977Z,20.23
2023-01-22T15:02:22.735Z,18.37
2023-01-22T15:06:07.283Z,19.67
2023-01-22T15:09:49.927Z,18.73
2023-01-22T15:13:32.960Z,19.40
2023-01-22T15:17:15.758Z,18.10
2023-01-22T15:20:58.609Z,18.27
2023-01-22T15:24:43.778Z,18.57
2023-01-22T15:28:26.695Z,18.37
2023-01-22T15:32:09.307Z,15.90
2023-01-22T15:35:51.963Z,17.87
2023-01-22T15:39:34.624Z,17.90
2023-01-22T15:43:18.680Z,18.50
2023-01-22T15:47:01.442Z,15.87
2023-01-22T15:50:44.279Z,19.23
2023-01-22T15:54:27.130Z,19.43
2023-01-22T15:58:10.096Z,20.13
2023-01-22T16:01:54.178Z,20.10
2023-01-22T16:05:37.245Z,19.00
2023-01-22T16:09:23.483Z,18.23
2023-01-22T16:13:06.571Z,19.07
2023-01-22T16:16:51.140Z,17.10
2023-01-22T16:20:41.228Z,19.33
2023-01-22T16:24:24.088Z,19.37
2023-01-22T16:28:09.638Z,20.17
2023-01-22T16:31:52.965Z,19.50
2023-01-22T16:35:39.874Z,21.63
2023-01-22T16:39:25.831Z,29.33
2023-01-22T16:43:10.823Z,39.27
2023-01-22T16:46:54.444Z,21.13
2023-01-22T16:50:38.964Z,22.43
2023-01-22T16:54:24.437Z,18.17
2023-01-22T16:58:07.194Z,21.50
2023-01-22T17:01:50.292Z,20.97
2023-01-22T17:05:32.906Z,22.43
2023-01-22T17:09:18.734Z,21.27
2023-01-22T17:13:02.060Z,23.23
2023-01-22T17:16:44.835Z,27.63
2023-01-22T17:20:27.542Z,24.97
2023-01-22T17:24:10.843Z,21.20
2023-01-22T17:27:54.896Z,21.57
2023-01-22T17:31:38.068Z,23.03
2023-01-22T17:35:22.083Z,23.73
2023-01-22T17:39:05.486Z,25.00
2023-01-22T17:42:48.154Z,28.07
2023-01-22T17:46:32.695Z,52.47
2023-01-22T17:50:15.630Z,32.70
2023-01-22T17:54:01.504Z,26.73
2023-01-22T17:57:44.145Z,27.97
2023-01-22T18:01:30.823Z,26.37
2023-01-22T18:05:16.845Z,28.53
2023-01-22T18:09:00.608Z,32.27
2023-01-22T18:12:44.936Z,29.60
2023-01-22T18:16:29.449Z,34.00
2023-01-22T18:20:12.527Z,30.90
2023-01-22T18:23:56.988Z,31.93
2023-01-22T18:27:39.730Z,26.80
2023-01-22T18:31:24.635Z,28.77
2023-01-22T18:35:08.747Z,29.57
2023-01-22T18:38:52.079Z,30.27
2023-01-22T18:42:36.223Z,32.30
2023-01-22T18:46:19.805Z,31.33
2023-01-22T18:50:02.513Z,28.73
2023-01-22T18:53:45.208Z,36.27
2023-01-22T18:57:29.929Z,43.93
2023-01-22T19:01:17.155Z,38.77
2023-01-22T19:05:00.012Z,37.57
2023-01-22T19:08:43.703Z,32.87
2023-01-22T19:12:26.434Z,33.37
2023-01-22T19:16:10.910Z,30.60
2023-01-22T19:19:55.105Z,30.83
2023-01-22T19:23:38.060Z,46.10
2023-01-22T19:27:20.931Z,46.27
2023-01-22T19:31:03.656Z,46.87
2023-01-22T19:34:46.331Z,42.10
2023-01-22T19:38:30.364Z,43.13
2023-01-22T19:42:13.081Z,39.63
2023-01-22T19:45:55.875Z,42.53
2023-01-22T19:49:38.765Z,35.90
2023-01-22T19:53:21.446Z,92.17
2023-01-22T19:57:05.519Z,43.13
2023-01-22T20:00:48.555Z,39.57
2023-01-22T20:04:33.802Z,42.80
2023-01-22T20:08:16.768Z,44.47
2023-01-22T20:12:00.238Z,38.23
2023-01-22T20:15:44.322Z,43.90
2023-01-22T20:19:28.863Z,36.23
2023-01-22T20:23:11.534Z,40.90
2023-01-22T20:26:55.321Z,42.63
2023-01-22T20:30:38.316Z,40.73
2023-01-22T20:34:22.478Z,37.40
2023-01-22T20:38:05.171Z,39.13
2023-01-22T20:41:47.935Z,38.50
2023-01-22T20:45:31.029Z,37.70
2023-01-22T20:49:14.143Z,38.17
2023-01-22T20:52:58.221Z,36.87
2023-01-22T20:56:40.909Z,38.17
2023-01-22T21:00:24.067Z,40.20
2023-01-22T21:04:07.099Z,38.03
2023-01-22T21:07:51.284Z,37.10
2023-01-22T21:11:36.764Z,36.23
2023-01-22T21:15:19.482Z,38.77
2023-01-22T21:19:03.534Z,40.10
2023-01-22T21:22:46.282Z,39.30
2023-01-22T21:26:31.366Z,48.47
2023-01-22T21:30:16.022Z,60.73
2023-01-22T21:34:03.288Z,41.67
2023-01-22T21:37:45.938Z,43.17
2023-01-22T21:41:29.060Z,45.67
2023-01-22T21:45:44.519Z,43.13
2023-01-22T21:49:28.731Z,40.63
2023-01-22T21:53:12.797Z,37.13
2023-01-22T21:56:56.251Z,41.80
2023-01-22T22:00:38.955Z,46.13
2023-01-22T22:04:25.782Z,44.30
2023-01-22T22:08:10.047Z,46.03
2023-01-22T22:11:56.009Z,44.17
2023-01-22T22:15:38.922Z,46.43
2023-01-22T22:19:22.446Z,44.00
2023-01-22T22:23:05.358Z,42.50
2023-01-22T22:26:49.466Z,48.57
2023-01-22T22:30:32.125Z,47.83
2023-01-22T22:34:14.759Z,44.93
2023-01-22T22:37:57.585Z,43.83
2023-01-22T22:41:40.717Z,44.30
2023-01-22T22:45:24.780Z,46.43
2023-01-22T22:49:09.281Z,45.67
2023-01-22T22:52:52.847Z,45.37
2023-01-22T22:56:36.127Z,45.17
2023-01-22T23:00:20.077Z,47.67
2023-01-22T23:04:04.942Z,44.47
2023-01-22T23:07:50.454Z,45.27
2023-01-22T23:11:35.135Z,44.87
2023-01-22T23:15:17.865Z,47.87
2023-01-22T23:19:02.067Z,45.47
2023-01-22T23:22:46.496Z,45.40
2023-01-22T23:26:30.658Z,51.53
2023-01-22T23:30:14.328Z,42.90
2023-01-22T23:33:57.708Z,43.87
2023-01-22T23:37:40.448Z,50.93
2023-01-22T23:41:26.621Z,48.43
2023-01-22T23:45:11.910Z,45.67
2023-01-22T23:48:58.910Z,43.50
2023-01-22T23:52:42.814Z,45.50
2023-01-22T23:56:31.523Z,46.13
